DCSAG EDDW-LGIR
Flight info
| Callsign | DCSAG |
|---|---|
| Flight time | N/A |
| Altitude | 41000 |
| Route | NIE6Z NIE Z88 SAS DCT NOMKA DCT ARMUT DCT LAMSI DCT LIMRA DCT GOLVA DCT PETOV DCT LURID DCT OSLUD DCT AKIKA DCT MAVAR DCT BITLA UN132 KEA UL607 GIVIS T514 XAVIS |
| Aircraft | E55P/M-SBDFGHJ2RWY/LB2 |
Departure
| Time | N/A |
|---|---|
| Airport | Bremen Airport (EDDW) |
Arrival
| Time | 2026-05-01 07:38 |
|---|---|
| Airport | Heraklion International Nikos Kazantzakis Airport (LGIR) |
| Time | Latitude | Longitude | Altitude | Speed | Heading |
|---|---|---|---|---|---|
| 2026-05-01 07:23 | 36.03704 | 25.44038 | 20988 ft | 395 kts | 165° |
| 2026-05-01 07:23 | 35.98517 | 25.46141 | 20083 ft | 386 kts | 165° |
| 2026-05-01 07:24 | 35.95985 | 25.47150 | 19629 ft | 379 kts | 166° |
| 2026-05-01 07:24 | 35.93499 | 25.48136 | 19182 ft | 373 kts | 166° |
| 2026-05-01 07:24 | 35.91041 | 25.49110 | 18731 ft | 368 kts | 166° |
| 2026-05-01 07:24 | 35.88606 | 25.50075 | 18279 ft | 365 kts | 166° |
| 2026-05-01 07:25 | 35.86196 | 25.51031 | 17741 ft | 364 kts | 166° |
| 2026-05-01 07:25 | 35.83779 | 25.51989 | 17122 ft | 365 kts | 166° |
| 2026-05-01 07:25 | 35.81363 | 25.52948 | 16501 ft | 362 kts | 165° |
| 2026-05-01 07:25 | 35.79000 | 25.53892 | 15871 ft | 351 kts | 165° |
| 2026-05-01 07:26 | 35.76701 | 25.54812 | 15244 ft | 343 kts | 165° |
| 2026-05-01 07:26 | 35.74451 | 25.55712 | 14620 ft | 338 kts | 165° |
| 2026-05-01 07:26 | 35.72200 | 25.56421 | 13988 ft | 329 kts | 178° |
| 2026-05-01 07:26 | 35.69966 | 25.56260 | 13368 ft | 317 kts | 195° |
| 2026-05-01 07:27 | 35.67903 | 25.55552 | 12746 ft | 300 kts | 204° |
| 2026-05-01 07:27 | 35.66016 | 25.54584 | 12122 ft | 289 kts | 209° |
| 2026-05-01 07:27 | 35.64241 | 25.53485 | 11496 ft | 281 kts | 212° |
| 2026-05-01 07:27 | 35.62553 | 25.52330 | 10878 ft | 276 kts | 214° |
| 2026-05-01 07:28 | 35.60903 | 25.51140 | 10255 ft | 273 kts | 214° |
| 2026-05-01 07:28 | 35.59286 | 25.49940 | 9632 ft | 271 kts | 215° |
| 2026-05-01 07:28 | 35.57692 | 25.48740 | 9005 ft | 266 kts | 215° |
| 2026-05-01 07:28 | 35.56124 | 25.47553 | 8379 ft | 263 kts | 215° |
| 2026-05-01 07:29 | 35.54567 | 25.46372 | 7752 ft | 261 kts | 215° |
| 2026-05-01 07:29 | 35.53034 | 25.45208 | 7128 ft | 258 kts | 215° |
| 2026-05-01 07:29 | 35.51513 | 25.44051 | 6503 ft | 256 kts | 215° |
| 2026-05-01 07:29 | 35.50002 | 25.42904 | 5877 ft | 254 kts | 214° |
| 2026-05-01 07:30 | 35.48491 | 25.41776 | 5259 ft | 254 kts | 215° |
| 2026-05-01 07:30 | 35.46978 | 25.40645 | 4629 ft | 254 kts | 211° |
| 2026-05-01 07:30 | 35.45263 | 25.40075 | 3990 ft | 260 kts | 183° |
| 2026-05-01 07:30 | 35.43486 | 25.40374 | 3412 ft | 260 kts | 166° |
| 2026-05-01 07:31 | 35.41875 | 25.41161 | 3349 ft | 241 kts | 157° |
| 2026-05-01 07:31 | 35.37817 | 25.43964 | 3040 ft | 203 kts | 161° |
| 2026-05-01 07:32 | 35.35566 | 25.43201 | 2894 ft | 170 kts | 237° |
| 2026-05-01 07:32 | 35.35003 | 25.41959 | 2643 ft | 165 kts | 246° |
| 2026-05-01 07:33 | 35.34121 | 25.39500 | 2421 ft | 141 kts | 249° |
| 2026-05-01 07:33 | 35.33730 | 25.38412 | 2300 ft | 141 kts | 247° |
| 2026-05-01 07:33 | 35.32923 | 25.36273 | 2086 ft | 129 kts | 250° |
| 2026-05-01 07:34 | 35.32794 | 25.35253 | 2053 ft | 114 kts | 273° |
| 2026-05-01 07:34 | 35.32967 | 25.33215 | 2027 ft | 129 kts | 278° |
| 2026-05-01 07:34 | 35.33051 | 25.32114 | 2113 ft | 130 kts | 276° |
| 2026-05-01 07:35 | 35.33141 | 25.30981 | 2058 ft | 139 kts | 276° |
| 2026-05-01 07:35 | 35.33222 | 25.29797 | 1891 ft | 140 kts | 275° |
| 2026-05-01 07:35 | 35.33260 | 25.28602 | 1662 ft | 139 kts | 273° |
| 2026-05-01 07:35 | 35.33288 | 25.27428 | 1433 ft | 138 kts | 276° |
| 2026-05-01 07:36 | 35.33335 | 25.26251 | 1184 ft | 138 kts | 277° |
| 2026-05-01 07:36 | 35.33410 | 25.25080 | 987 ft | 138 kts | 279° |
| 2026-05-01 07:36 | 35.33533 | 25.23894 | 838 ft | 141 kts | 283° |
| 2026-05-01 07:36 | 35.33646 | 25.22695 | 784 ft | 144 kts | 277° |
| 2026-05-01 07:37 | 35.33803 | 25.20230 | 394 ft | 140 kts | 279° |
| 2026-05-01 07:37 | 35.33902 | 25.19036 | 194 ft | 143 kts | 278° |
| 2026-05-01 07:37 | 35.33979 | 25.17889 | 119 ft | 120 kts | 278° |
| 2026-05-01 07:38 | 35.34021 | 25.17284 | 119 ft | 21 kts | 277° |
| 2026-05-01 07:38 | 35.34026 | 25.17199 | 119 ft | 9 kts | 263° |
| 2026-05-01 07:38 | 35.33978 | 25.17066 | 119 ft | 8 kts | 243° |
| 2026-05-01 07:39 | 35.33945 | 25.17058 | 119 ft | 6 kts | 122° |
| 2026-05-01 07:39 | 35.33939 | 25.17104 | 119 ft | 5 kts | 96° |
| 2026-05-01 07:39 | 35.33932 | 25.17201 | 119 ft | 7 kts | 94° |
| 2026-05-01 07:40 | 35.33928 | 25.17266 | 119 ft | 8 kts | 94° |
| 2026-05-01 07:40 | 35.33923 | 25.17343 | 119 ft | 10 kts | 95° |
| 2026-05-01 07:40 | 35.33917 | 25.17430 | 119 ft | 11 kts | 95° |
| 2026-05-01 07:40 | 35.33910 | 25.17527 | 119 ft | 12 kts | 95° |
| 2026-05-01 07:41 | 35.33903 | 25.17633 | 119 ft | 13 kts | 94° |
| 2026-05-01 07:41 | 35.33896 | 25.17725 | 119 ft | 8 kts | 120° |
| 2026-05-01 07:41 | 35.33811 | 25.17717 | 119 ft | 6 kts | 252° |
| 2026-05-01 07:42 | 35.33813 | 25.17672 | 119 ft | 5 kts | 276° |
| 2026-05-01 07:42 | 35.33813 | 25.17664 | 119 ft | 0 kts | 275° |